sensor_id;sensor_type;location;lat;lon;timestamp;pressure;altitude;pressure_sealevel;temperature;humidity
31088;BME280;17745;55.914;37.554;2023-11-19T00:00:41;100014.97;;;-4.33;58.26
31088;BME280;17745;55.914;37.554;2023-11-19T00:03:26;100009.66;;;-4.32;58.22
31088;BME280;17745;55.914;37.554;2023-11-19T00:06:14;100007.34;;;-4.35;58.18
31088;BME280;17745;55.914;37.554;2023-11-19T00:08:57;100011.69;;;-4.35;58.24
31088;BME280;17745;55.914;37.554;2023-11-19T00:11:45;100011.84;;;-4.37;58.22
31088;BME280;17745;55.914;37.554;2023-11-19T00:17:56;100007.88;;;-4.41;58.24
31088;BME280;17745;55.914;37.554;2023-11-19T00:20:38;99998.50;;;-4.42;58.20
31088;BME280;17745;55.914;37.554;2023-11-19T00:23:05;100003.81;;;-4.43;58.20
31088;BME280;17745;55.914;37.554;2023-11-19T00:25:34;100003.94;;;-4.45;58.21
31088;BME280;17745;55.914;37.554;2023-11-19T00:30:54;99998.09;;;-4.47;58.22
31088;BME280;17745;55.914;37.554;2023-11-19T00:36:56;100000.66;;;-4.47;58.32
31088;BME280;17745;55.914;37.554;2023-11-19T00:39:52;99993.75;;;-4.47;58.32
31088;BME280;17745;55.914;37.554;2023-11-19T00:42:23;99999.88;;;-4.48;58.29
31088;BME280;17745;55.914;37.554;2023-11-19T00:45:04;99991.00;;;-4.45;58.36
31088;BME280;17745;55.914;37.554;2023-11-19T00:47:51;99984.75;;;-4.42;58.31
31088;BME280;17745;55.914;37.554;2023-11-19T00:50:19;99985.28;;;-4.39;58.29
31088;BME280;17745;55.914;37.554;2023-11-19T00:53:08;99989.38;;;-4.36;58.28
31088;BME280;17745;55.914;37.554;2023-11-19T00:55:38;99982.03;;;-4.31;58.30
31088;BME280;17745;55.914;37.554;2023-11-19T00:58:20;99976.84;;;-4.21;58.30
31088;BME280;17745;55.914;37.554;2023-11-19T01:01:16;99978.47;;;-4.10;58.24
31088;BME280;17745;55.914;37.554;2023-11-19T01:03:59;99979.84;;;-3.96;58.15
31088;BME280;17745;55.914;37.554;2023-11-19T01:06:40;99976.13;;;-3.84;58.06
31088;BME280;17745;55.914;37.554;2023-11-19T01:18:30;99943.56;;;-3.67;57.85
31088;BME280;17745;55.914;37.554;2023-11-19T01:20:59;99944.38;;;-3.66;57.79
31088;BME280;17745;55.914;37.554;2023-11-19T01:23:29;99942.06;;;-3.69;57.77
31088;BME280;17745;55.914;37.554;2023-11-19T01:26:11;99936.50;;;-3.75;57.81
31088;BME280;17745;55.914;37.554;2023-11-19T01:28:40;99938.41;;;-3.77;57.89
31088;BME280;17745;55.914;37.554;2023-11-19T01:31:10;99939.34;;;-3.78;57.92
31088;BME280;17745;55.914;37.554;2023-11-19T01:33:42;99936.62;;;-3.76;57.96
31088;BME280;17745;55.914;37.554;2023-11-19T01:36:37;99943.03;;;-3.70;57.97
31088;BME280;17745;55.914;37.554;2023-11-19T01:39:21;99941.34;;;-3.62;57.88
31088;BME280;17745;55.914;37.554;2023-11-19T01:42:04;99942.28;;;-3.53;57.88
31088;BME280;17745;55.914;37.554;2023-11-19T01:44:55;99938.41;;;-3.39;57.81
31088;BME280;17745;55.914;37.554;2023-11-19T01:47:41;99939.41;;;-3.22;57.74
31088;BME280;17745;55.914;37.554;2023-11-19T01:53:22;99937.38;;;-3.00;57.31
31088;BME280;17745;55.914;37.554;2023-11-19T01:55:49;99934.22;;;-2.94;57.24
31088;BME280;17745;55.914;37.554;2023-11-19T01:58:34;99936.75;;;-2.84;57.15
31088;BME280;17745;55.914;37.554;2023-11-19T02:01:15;99934.09;;;-2.74;57.11
31088;BME280;17745;55.914;37.554;2023-11-19T02:03:44;99928.16;;;-2.66;57.02
31088;BME280;17745;55.914;37.554;2023-11-19T02:06:13;99930.19;;;-2.60;57.01
31088;BME280;17745;55.914;37.554;2023-11-19T02:11:39;99924.25;;;-2.52;56.97
31088;BME280;17745;55.914;37.554;2023-11-19T02:14:11;99912.91;;;-2.51;56.94
31088;BME280;17745;55.914;37.554;2023-11-19T02:17:05;99923.78;;;-2.48;57.04
31088;BME280;17745;55.914;37.554;2023-11-19T02:19:34;99915.88;;;-2.46;57.08
31088;BME280;17745;55.914;37.554;2023-11-19T02:22:06;99920.75;;;-2.43;57.07
31088;BME280;17745;55.914;37.554;2023-11-19T02:24:37;99928.91;;;-2.38;57.00
31088;BME280;17745;55.914;37.554;2023-11-19T02:27:23;99923.25;;;-2.33;57.03
31088;BME280;17745;55.914;37.554;2023-11-19T02:33:10;99921.09;;;-2.20;56.94
31088;BME280;17745;55.914;37.554;2023-11-19T02:35:43;99923.22;;;-2.15;56.82
31088;BME280;17745;55.914;37.554;2023-11-19T02:38:12;99929.56;;;-2.18;56.73
31088;BME280;17745;55.914;37.554;2023-11-19T02:40:52;99931.47;;;-2.20;56.81
31088;BME280;17745;55.914;37.554;2023-11-19T02:43:20;99922.06;;;-2.21;56.83
31088;BME280;17745;55.914;37.554;2023-11-19T02:45:47;99920.28;;;-2.20;56.80
31088;BME280;17745;55.914;37.554;2023-11-19T03:00:20;99905.84;;;-2.23;56.86
31088;BME280;17745;55.914;37.554;2023-11-19T03:02:58;99906.00;;;-2.24;56.87
31088;BME280;17745;55.914;37.554;2023-11-19T03:05:31;99901.25;;;-2.29;56.86
31088;BME280;17745;55.914;37.554;2023-11-19T03:07:59;99902.81;;;-2.36;56.80
31088;BME280;17745;55.914;37.554;2023-11-19T03:10:28;99897.94;;;-2.39;56.87
31088;BME280;17745;55.914;37.554;2023-11-19T03:12:55;99898.06;;;-2.41;56.93
31088;BME280;17745;55.914;37.554;2023-11-19T03:18:09;99894.81;;;-2.43;57.14
31088;BME280;17745;55.914;37.554;2023-11-19T03:20:40;99890.28;;;-2.41;57.07
31088;BME280;17745;55.914;37.554;2023-11-19T03:23:08;99901.50;;;-2.40;56.90
31088;BME280;17745;55.914;37.554;2023-11-19T03:25:39;99892.59;;;-2.38;56.88
31088;BME280;17745;55.914;37.554;2023-11-19T03:28:06;99893.25;;;-2.36;56.93
31088;BME280;17745;55.914;37.554;2023-11-19T03:30:34;99892.81;;;-2.31;56.88
31088;BME280;17745;55.914;37.554;2023-11-19T03:33:02;99895.91;;;-2.27;56.86
31088;BME280;17745;55.914;37.554;2023-11-19T03:38:15;99892.81;;;-2.31;56.90
31088;BME280;17745;55.914;37.554;2023-11-19T03:40:42;99891.03;;;-2.31;56.92
31088;BME280;17745;55.914;37.554;2023-11-19T03:43:09;99887.00;;;-2.25;56.88
31088;BME280;17745;55.914;37.554;2023-11-19T03:46:05;99890.78;;;-2.19;56.74
31088;BME280;17745;55.914;37.554;2023-11-19T03:48:43;99882.84;;;-2.18;56.71
31088;BME280;17745;55.914;37.554;2023-11-19T03:51:13;99885.13;;;-2.14;56.74
31088;BME280;17745;55.914;37.554;2023-11-19T03:53:49;99875.28;;;-2.11;56.76
31088;BME280;17745;55.914;37.554;2023-11-19T03:56:34;99879.50;;;-2.10;56.73
31088;BME280;17745;55.914;37.554;2023-11-19T03:59:19;99876.72;;;-2.08;56.73
31088;BME280;17745;55.914;37.554;2023-11-19T04:02:02;99874.00;;;-2.07;56.70
31088;BME280;17745;55.914;37.554;2023-11-19T04:04:45;99876.44;;;-2.05;56.71
31088;BME280;17745;55.914;37.554;2023-11-19T04:07:17;99881.13;;;-2.09;56.68
31088;BME280;17745;55.914;37.554;2023-11-19T04:36:26;99824.69;;;-2.07;56.80
31088;BME280;17745;55.914;37.554;2023-11-19T04:39:09;99833.78;;;-2.03;56.72
31088;BME280;17745;55.914;37.554;2023-11-19T04:41:53;99837.88;;;-2.00;56.65
31088;BME280;17745;55.914;37.554;2023-11-19T04:44:49;99847.09;;;-2.06;56.54
31088;BME280;17745;55.914;37.554;2023-11-19T04:47:45;99850.31;;;-2.12;56.52
31088;BME280;17745;55.914;37.554;2023-11-19T04:50:42;99853.69;;;-2.11;56.51
31088;BME280;17745;55.914;37.554;2023-11-19T05:09:09;99855.97;;;-1.82;56.59
31088;BME280;17745;55.914;37.554;2023-11-19T05:11:39;99859.72;;;-1.76;56.58
31088;BME280;17745;55.914;37.554;2023-11-19T05:14:26;99848.37;;;-1.75;56.57
31088;BME280;17745;55.914;37.554;2023-11-19T05:17:23;99846.28;;;-1.71;56.56
31088;BME280;17745;55.914;37.554;2023-11-19T05:20:06;99845.47;;;-1.72;56.59
31088;BME280;17745;55.914;37.554;2023-11-19T05:22:40;99845.47;;;-1.72;56.71
31088;BME280;17745;55.914;37.554;2023-11-19T05:51:14;99858.72;;;-1.40;56.65
31088;BME280;17745;55.914;37.554;2023-11-19T05:58:08;99859.88;;;-1.26;56.52
31088;BME280;17745;55.914;37.554;2023-11-19T06:04:37;99858.72;;;-1.40;56.09
31088;BME280;17745;55.914;37.554;2023-11-19T06:10:04;99859.03;;;-1.44;56.11
31088;BME280;17745;55.914;37.554;2023-11-19T06:12:57;99860.50;;;-1.41;56.10
31088;BME280;17745;55.914;37.554;2023-11-19T06:15:55;99852.34;;;-1.46;55.97
31088;BME280;17745;55.914;37.554;2023-11-19T06:18:56;99860.16;;;-1.46;56.12
31088;BME280;17745;55.914;37.554;2023-11-19T08:28:45;99803.53;;;-0.35;55.73
31088;BME280;17745;55.914;37.554;2023-11-19T08:31:50;99807.12;;;-0.44;55.64
31088;BME280;17745;55.914;37.554;2023-11-19T08:38:45;99799.31;;;-0.44;55.92
31088;BME280;17745;55.914;37.554;2023-11-19T09:22:46;99793.97;;;-0.51;55.84
31088;BME280;17745;55.914;37.554;2023-11-19T09:29:20;99789.25;;;-0.55;55.68
31088;BME280;17745;55.914;37.554;2023-11-19T09:36:04;99779.69;;;-0.55;55.38
31088;BME280;17745;55.914;37.554;2023-11-19T10:03:47;99728.03;;;-0.18;55.75
31088;BME280;17745;55.914;37.554;2023-11-19T10:16:46;99732.88;;;-0.15;55.39
31088;BME280;17745;55.914;37.554;2023-11-19T13:49:38;99609.69;;;-1.85;54.52
31088;BME280;17745;55.914;37.554;2023-11-19T18:21:02;99518.50;;;-2.48;52.84
31088;BME280;17745;55.914;37.554;2023-11-19T18:23:32;99514.59;;;-2.52;52.82
31088;BME280;17745;55.914;37.554;2023-11-19T18:27:08;99529.16;;;-2.60;52.88
31088;BME280;17745;55.914;37.554;2023-11-19T18:30:19;99523.00;;;-2.59;52.95
31088;BME280;17745;55.914;37.554;2023-11-19T18:33:20;99517.19;;;-2.52;52.92
31088;BME280;17745;55.914;37.554;2023-11-19T18:39:22;99525.94;;;-2.45;52.83
31088;BME280;17745;55.914;37.554;2023-11-19T18:42:07;99532.59;;;-2.42;52.82
31088;BME280;17745;55.914;37.554;2023-11-19T18:45:25;99526.44;;;-2.41;52.81
31088;BME280;17745;55.914;37.554;2023-11-19T18:51:23;99521.41;;;-2.43;52.93
31088;BME280;17745;55.914;37.554;2023-11-19T20:50:49;99534.94;;;-3.96;53.51
31088;BME280;17745;55.914;37.554;2023-11-19T21:00:21;99531.31;;;-4.22;53.45
31088;BME280;17745;55.914;37.554;2023-11-19T21:03:35;99534.63;;;-4.29;53.51
31088;BME280;17745;55.914;37.554;2023-11-19T22:44:44;99463.03;;;-5.77;53.97
31088;BME280;17745;55.914;37.554;2023-11-19T22:48:01;99460.75;;;-5.80;53.97
31088;BME280;17745;55.914;37.554;2023-11-19T22:57:49;99461.03;;;-5.83;54.01
31088;BME280;17745;55.914;37.554;2023-11-19T23:04:30;99456.00;;;-5.85;54.00
31088;BME280;17745;55.914;37.554;2023-11-19T23:53:06;99452.63;;;-5.85;54.42
